sensor_id;sensor_type;location;lat;lon;timestamp;pressure;altitude;pressure_sealevel;temperature;humidity
71778;BME280;59609;52.430;4.668;2023-04-06T00:01:26;101804.50;;;6.13;84.82
71778;BME280;59609;52.430;4.668;2023-04-06T00:03:52;101800.66;;;6.16;84.74
71778;BME280;59609;52.430;4.668;2023-04-06T00:06:17;101790.69;;;6.15;84.60
71778;BME280;59609;52.430;4.668;2023-04-06T00:08:42;101795.06;;;6.17;84.57
71778;BME280;59609;52.430;4.668;2023-04-06T00:11:09;101794.22;;;6.17;84.80
71778;BME280;59609;52.430;4.668;2023-04-06T00:13:35;101787.97;;;6.15;84.91
71778;BME280;59609;52.430;4.668;2023-04-06T00:16:00;101787.88;;;6.16;85.38
71778;BME280;59609;52.430;4.668;2023-04-06T00:18:26;101777.50;;;6.09;84.95
71778;BME280;59609;52.430;4.668;2023-04-06T00:20:51;101775.16;;;6.15;83.78
71778;BME280;59609;52.430;4.668;2023-04-06T00:23:17;101776.56;;;6.21;83.24
71778;BME280;59609;52.430;4.668;2023-04-06T00:25:42;101772.31;;;6.17;82.56
71778;BME280;59609;52.430;4.668;2023-04-06T00:28:08;101778.22;;;6.24;81.92
71778;BME280;59609;52.430;4.668;2023-04-06T00:30:33;101763.50;;;6.25;81.50
71778;BME280;59609;52.430;4.668;2023-04-06T00:32:58;101760.13;;;6.21;81.08
71778;BME280;59609;52.430;4.668;2023-04-06T00:35:24;101773.94;;;6.19;80.95
71778;BME280;59609;52.430;4.668;2023-04-06T00:37:49;101762.34;;;6.16;81.10
71778;BME280;59609;52.430;4.668;2023-04-06T00:40:15;101758.50;;;6.18;80.38
71778;BME280;59609;52.430;4.668;2023-04-06T00:42:41;101758.41;;;6.20;80.42
71778;BME280;59609;52.430;4.668;2023-04-06T00:45:07;101751.19;;;6.19;79.66
71778;BME280;59609;52.430;4.668;2023-04-06T00:47:35;101753.03;;;6.18;78.73
71778;BME280;59609;52.430;4.668;2023-04-06T00:50:00;101748.53;;;6.17;78.32
71778;BME280;59609;52.430;4.668;2023-04-06T00:52:25;101745.94;;;6.16;78.01
71778;BME280;59609;52.430;4.668;2023-04-06T00:54:51;101748.31;;;6.20;77.57
71778;BME280;59609;52.430;4.668;2023-04-06T00:57:17;101746.22;;;6.24;77.83
71778;BME280;59609;52.430;4.668;2023-04-06T00:59:43;101739.94;;;6.11;77.78
71778;BME280;59609;52.430;4.668;2023-04-06T01:02:09;101746.41;;;6.10;77.95
71778;BME280;59609;52.430;4.668;2023-04-06T01:04:34;101736.22;;;6.12;77.98
71778;BME280;59609;52.430;4.668;2023-04-06T01:07:00;101735.25;;;6.13;77.77
71778;BME280;59609;52.430;4.668;2023-04-06T01:09:29;101728.00;;;6.12;78.08
71778;BME280;59609;52.430;4.668;2023-04-06T01:11:56;101723.13;;;6.04;77.97
71778;BME280;59609;52.430;4.668;2023-04-06T01:14:22;101721.81;;;6.10;77.83
71778;BME280;59609;52.430;4.668;2023-04-06T01:16:48;101718.28;;;6.08;77.78
71778;BME280;59609;52.430;4.668;2023-04-06T01:19:13;101710.56;;;6.02;78.02
71778;BME280;59609;52.430;4.668;2023-04-06T01:21:40;101706.59;;;6.06;77.21
71778;BME280;59609;52.430;4.668;2023-04-06T01:24:06;101712.94;;;6.06;77.33
71778;BME280;59609;52.430;4.668;2023-04-06T01:26:32;101700.25;;;6.05;76.94
71778;BME280;59609;52.430;4.668;2023-04-06T01:28:58;101703.00;;;6.05;77.14
71778;BME280;59609;52.430;4.668;2023-04-06T01:31:24;101692.38;;;6.01;76.08
71778;BME280;59609;52.430;4.668;2023-04-06T01:33:49;101693.25;;;6.01;76.51
71778;BME280;59609;52.430;4.668;2023-04-06T01:36:15;101689.78;;;5.99;76.19
71778;BME280;59609;52.430;4.668;2023-04-06T01:38:41;101684.78;;;5.93;76.29
71778;BME280;59609;52.430;4.668;2023-04-06T01:41:07;101689.78;;;5.99;76.48
71778;BME280;59609;52.430;4.668;2023-04-06T01:43:32;101687.16;;;5.98;76.46
71778;BME280;59609;52.430;4.668;2023-04-06T01:45:58;101683.44;;;5.99;76.43
71778;BME280;59609;52.430;4.668;2023-04-06T01:48:23;101683.28;;;5.89;76.70
71778;BME280;59609;52.430;4.668;2023-04-06T01:50:49;101676.69;;;5.92;77.14
71778;BME280;59609;52.430;4.668;2023-04-06T01:53:14;101683.91;;;5.93;76.47
71778;BME280;59609;52.430;4.668;2023-04-06T01:55:43;101676.38;;;5.84;76.98
71778;BME280;59609;52.430;4.668;2023-04-06T01:58:09;101676.19;;;5.87;76.39
71778;BME280;59609;52.430;4.668;2023-04-06T02:00:34;101670.56;;;5.88;76.11
71778;BME280;59609;52.430;4.668;2023-04-06T02:03:00;101668.72;;;5.89;75.10
71778;BME280;59609;52.430;4.668;2023-04-06T02:05:26;101670.34;;;5.91;75.01
71778;BME280;59609;52.430;4.668;2023-04-06T02:07:51;101660.75;;;5.86;74.71
71778;BME280;59609;52.430;4.668;2023-04-06T02:10:17;101659.34;;;5.80;74.45
71778;BME280;59609;52.430;4.668;2023-04-06T02:12:42;101643.25;;;5.76;73.30
71778;BME280;59609;52.430;4.668;2023-04-06T02:15:08;101650.69;;;5.86;72.75
71778;BME280;59609;52.430;4.668;2023-04-06T02:17:34;101663.00;;;5.92;71.74
71778;BME280;59609;52.430;4.668;2023-04-06T02:19:59;101651.34;;;5.90;71.38
71778;BME280;59609;52.430;4.668;2023-04-06T02:22:25;101648.69;;;5.88;71.24
71778;BME280;59609;52.430;4.668;2023-04-06T02:24:50;101646.59;;;5.92;70.91
71778;BME280;59609;52.430;4.668;2023-04-06T02:27:15;101636.66;;;5.91;70.25
71778;BME280;59609;52.430;4.668;2023-04-06T02:29:41;101642.16;;;6.02;70.29
71778;BME280;59609;52.430;4.668;2023-04-06T02:32:06;101638.56;;;6.01;70.02
71778;BME280;59609;52.430;4.668;2023-04-06T02:34:32;101633.09;;;6.01;69.80
71778;BME280;59609;52.430;4.668;2023-04-06T02:36:57;101635.47;;;6.06;69.79
71778;BME280;59609;52.430;4.668;2023-04-06T02:39:23;101635.19;;;5.98;69.81
71778;BME280;59609;52.430;4.668;2023-04-06T02:41:48;101626.16;;;6.08;69.54
71778;BME280;59609;52.430;4.668;2023-04-06T02:44:13;101622.31;;;6.11;68.77
71778;BME280;59609;52.430;4.668;2023-04-06T02:46:39;101616.19;;;6.07;69.12
71778;BME280;59609;52.430;4.668;2023-04-06T02:49:05;101622.28;;;6.00;69.14
71778;BME280;59609;52.430;4.668;2023-04-06T02:51:30;101616.81;;;6.00;68.67
71778;BME280;59609;52.430;4.668;2023-04-06T02:53:55;101620.06;;;6.05;69.85
71778;BME280;59609;52.430;4.668;2023-04-06T02:56:21;101609.09;;;6.05;69.15
71778;BME280;59609;52.430;4.668;2023-04-06T02:58:47;101604.88;;;6.01;69.95
71778;BME280;59609;52.430;4.668;2023-04-06T03:01:12;101595.81;;;6.00;69.49
71778;BME280;59609;52.430;4.668;2023-04-06T03:03:37;101585.22;;;5.96;69.48
71778;BME280;59609;52.430;4.668;2023-04-06T03:06:03;101601.03;;;6.03;70.03
71778;BME280;59609;52.430;4.668;2023-04-06T03:08:28;101590.44;;;5.99;70.66
71778;BME280;59609;52.430;4.668;2023-04-06T03:10:54;101597.94;;;6.08;70.41
71778;BME280;59609;52.430;4.668;2023-04-06T03:13:20;101594.31;;;6.07;70.33
71778;BME280;59609;52.430;4.668;2023-04-06T03:15:45;101585.72;;;6.01;70.42
71778;BME280;59609;52.430;4.668;2023-04-06T03:18:11;101592.69;;;6.05;71.06
71778;BME280;59609;52.430;4.668;2023-04-06T03:20:36;101582.34;;;5.97;71.71
71778;BME280;59609;52.430;4.668;2023-04-06T03:23:01;101581.75;;;6.05;70.98
71778;BME280;59609;52.430;4.668;2023-04-06T03:25:27;101586.25;;;6.06;71.93
71778;BME280;59609;52.430;4.668;2023-04-06T03:27:52;101592.19;;;6.00;72.03
71778;BME280;59609;52.430;4.668;2023-04-06T03:30:18;101581.13;;;6.01;72.15
71778;BME280;59609;52.430;4.668;2023-04-06T03:32:44;101580.25;;;6.01;72.47
71778;BME280;59609;52.430;4.668;2023-04-06T03:35:09;101582.34;;;5.97;72.04
71778;BME280;59609;52.430;4.668;2023-04-06T03:37:35;101573.78;;;6.02;72.54
71778;BME280;59609;52.430;4.668;2023-04-06T03:40:00;101569.94;;;5.93;71.62
71778;BME280;59609;52.430;4.668;2023-04-06T03:42:26;101569.06;;;6.04;72.13
71778;BME280;59609;52.430;4.668;2023-04-06T03:44:52;101568.31;;;6.02;71.39
71778;BME280;59609;52.430;4.668;2023-04-06T03:47:17;101569.59;;;6.09;71.86
71778;BME280;59609;52.430;4.668;2023-04-06T03:49:42;101561.63;;;6.06;72.02
71778;BME280;59609;52.430;4.668;2023-04-06T03:52:08;101562.38;;;6.08;72.42
71778;BME280;59609;52.430;4.668;2023-04-06T03:54:33;101559.63;;;5.97;73.02
71778;BME280;59609;52.430;4.668;2023-04-06T03:56:58;101561.00;;;6.02;73.03
71778;BME280;59609;52.430;4.668;2023-04-06T03:59:25;101567.59;;;6.00;73.31
71778;BME280;59609;52.430;4.668;2023-04-06T04:01:50;101560.13;;;6.02;72.68
71778;BME280;59609;52.430;4.668;2023-04-06T04:04:16;101560.00;;;6.03;72.58
71778;BME280;59609;52.430;4.668;2023-04-06T04:06:41;101551.03;;;5.90;73.37
71778;BME280;59609;52.430;4.668;2023-04-06T04:09:07;101561.34;;;5.98;72.73
71778;BME280;59609;52.430;4.668;2023-04-06T04:11:32;101556.13;;;5.95;72.96
71778;BME280;59609;52.430;4.668;2023-04-06T04:13:57;101559.38;;;6.00;72.78
71778;BME280;59609;52.430;4.668;2023-04-06T04:16:23;101552.88;;;5.90;73.63
71778;BME280;59609;52.430;4.668;2023-04-06T04:18:48;101552.41;;;5.96;72.99
71778;BME280;59609;52.430;4.668;2023-04-06T04:21:13;101554.91;;;5.99;73.75
71778;BME280;59609;52.430;4.668;2023-04-06T04:23:39;101561.88;;;6.03;73.76
71778;BME280;59609;52.430;4.668;2023-04-06T04:26:04;101552.25;;;5.97;74.24
71778;BME280;59609;52.430;4.668;2023-04-06T04:28:30;101544.84;;;5.99;74.03
71778;BME280;59609;52.430;4.668;2023-04-06T04:30:56;101541.97;;;6.01;74.22
71778;BME280;59609;52.430;4.668;2023-04-06T04:33:21;101530.53;;;5.96;74.41
71778;BME280;59609;52.430;4.668;2023-04-06T04:35:49;101545.72;;;6.11;73.87
71778;BME280;59609;52.430;4.668;2023-04-06T04:38:15;101534.66;;;6.12;73.71
71778;BME280;59609;52.430;4.668;2023-04-06T04:40:40;101539.75;;;6.06;74.42
71778;BME280;59609;52.430;4.668;2023-04-06T04:43:08;101537.75;;;6.08;73.84
71778;BME280;59609;52.430;4.668;2023-04-06T04:45:33;101544.00;;;6.10;73.55
71778;BME280;59609;52.430;4.668;2023-04-06T04:47:58;101538.63;;;6.08;73.32
71778;BME280;59609;52.430;4.668;2023-04-06T04:50:25;101541.25;;;6.10;74.15
71778;BME280;59609;52.430;4.668;2023-04-06T04:52:50;101535.00;;;6.08;74.46
71778;BME280;59609;52.430;4.668;2023-04-06T04:55:15;101533.28;;;6.07;73.69
71778;BME280;59609;52.430;4.668;2023-04-06T04:57:41;101542.09;;;6.10;73.95
71778;BME280;59609;52.430;4.668;2023-04-06T05:00:07;101540.38;;;6.09;74.87
71778;BME280;59609;52.430;4.668;2023-04-06T05:02:32;101522.75;;;6.13;74.06
71778;BME280;59609;52.430;4.668;2023-04-06T05:04:58;101525.72;;;6.21;74.70
71778;BME280;59609;52.430;4.668;2023-04-06T05:07:23;101528.34;;;6.23;74.54
71778;BME280;59609;52.430;4.668;2023-04-06T05:09:49;101529.31;;;6.22;74.91
71778;BME280;59609;52.430;4.668;2023-04-06T05:12:14;101523.75;;;6.24;74.85
71778;BME280;59609;52.430;4.668;2023-04-06T05:14:40;101526.59;;;6.22;75.36
71778;BME280;59609;52.430;4.668;2023-04-06T05:17:05;101531.81;;;6.25;76.04
71778;BME280;59609;52.430;4.668;2023-04-06T05:19:31;101528.72;;;6.30;76.09
71778;BME280;59609;52.430;4.668;2023-04-06T05:21:56;101527.13;;;6.27;76.70
71778;BME280;59609;52.430;4.668;2023-04-06T05:24:21;101505.69;;;6.21;76.50
71778;BME280;59609;52.430;4.668;2023-04-06T05:26:48;101518.91;;;6.27;76.77
71778;BME280;59609;52.430;4.668;2023-04-06T05:29:13;101520.38;;;6.31;76.54
71778;BME280;59609;52.430;4.668;2023-04-06T05:31:40;101512.31;;;6.30;76.81
71778;BME280;59609;52.430;4.668;2023-04-06T05:34:05;101519.50;;;6.31;76.72
71778;BME280;59609;52.430;4.668;2023-04-06T05:36:31;101519.38;;;6.32;76.27
71778;BME280;59609;52.430;4.668;2023-04-06T05:38:57;101504.72;;;6.33;76.57
71778;BME280;59609;52.430;4.668;2023-04-06T05:41:23;101512.31;;;6.30;76.03
71778;BME280;59609;52.430;4.668;2023-04-06T05:43:48;101508.72;;;6.40;75.85
71778;BME280;59609;52.430;4.668;2023-04-06T05:46:14;101515.03;;;6.41;76.16
71778;BME280;59609;52.430;4.668;2023-04-06T05:48:39;101522.63;;;6.48;75.87
71778;BME280;59609;52.430;4.668;2023-04-06T05:51:05;101516.53;;;6.45;76.45
71778;BME280;59609;52.430;4.668;2023-04-06T05:53:33;101513.81;;;6.56;76.46
71778;BME280;59609;52.430;4.668;2023-04-06T05:56:02;101516.28;;;6.48;77.72
71778;BME280;59609;52.430;4.668;2023-04-06T05:58:28;101520.00;;;6.58;77.53
71778;BME280;59609;52.430;4.668;2023-04-06T06:01:00;101521.50;;;6.62;78.23
71778;BME280;59609;52.430;4.668;2023-04-06T06:03:26;101519.53;;;6.53;78.49
71778;BME280;59609;52.430;4.668;2023-04-06T06:05:51;101524.09;;;6.74;78.40
71778;BME280;59609;52.430;4.668;2023-04-06T06:08:17;101522.13;;;6.65;78.56
71778;BME280;59609;52.430;4.668;2023-04-06T06:10:42;101522.38;;;6.51;78.58
71778;BME280;59609;52.430;4.668;2023-04-06T06:13:08;101523.63;;;6.69;77.40
71778;BME280;59609;52.430;4.668;2023-04-06T06:15:34;101522.88;;;6.67;76.53
71778;BME280;59609;52.430;4.668;2023-04-06T06:17:59;101529.63;;;6.63;77.76
71778;BME280;59609;52.430;4.668;2023-04-06T06:20:25;101528.34;;;6.79;77.72
71778;BME280;59609;52.430;4.668;2023-04-06T06:22:51;101523.88;;;6.66;77.79
71778;BME280;59609;52.430;4.668;2023-04-06T06:25:17;101520.63;;;6.72;78.14
71778;BME280;59609;52.430;4.668;2023-04-06T06:27:42;101516.19;;;6.60;78.84
71778;BME280;59609;52.430;4.668;2023-04-06T06:30:08;101513.41;;;6.83;78.71
71778;BME280;59609;52.430;4.668;2023-04-06T06:32:33;101515.53;;;6.79;78.77
71778;BME280;59609;52.430;4.668;2023-04-06T06:34:59;101515.28;;;6.71;79.16
71778;BME280;59609;52.430;4.668;2023-04-06T06:37:24;101516.50;;;6.78;79.06
71778;BME280;59609;52.430;4.668;2023-04-06T06:39:50;101524.09;;;6.86;79.12
71778;BME280;59609;52.430;4.668;2023-04-06T06:42:15;101520.38;;;6.76;80.07
71778;BME280;59609;52.430;4.668;2023-04-06T06:44:40;101524.09;;;6.86;79.75
71778;BME280;59609;52.430;4.668;2023-04-06T06:47:06;101514.78;;;6.77;80.35
71778;BME280;59609;52.430;4.668;2023-04-06T06:49:31;101516.28;;;6.70;80.90
71778;BME280;59609;52.430;4.668;2023-04-06T06:51:56;101520.25;;;6.88;80.50
71778;BME280;59609;52.430;4.668;2023-04-06T06:54:22;101508.41;;;6.88;80.38
71778;BME280;59609;52.430;4.668;2023-04-06T06:56:47;101501.56;;;6.93;80.26
71778;BME280;59609;52.430;4.668;2023-04-06T06:59:12;101507.16;;;6.92;80.73
71778;BME280;59609;52.430;4.668;2023-04-06T07:01:38;101511.66;;;6.93;80.48
71778;BME280;59609;52.430;4.668;2023-04-06T07:04:03;101515.84;;;7.08;80.17
71778;BME280;59609;52.430;4.668;2023-04-06T07:06:29;101514.31;;;7.15;80.16
71778;BME280;59609;52.430;4.668;2023-04-06T07:08:54;101505.47;;;7.22;80.00
71778;BME280;59609;52.430;4.668;2023-04-06T07:11:20;101497.16;;;7.13;80.14
71778;BME280;59609;52.430;4.668;2023-04-06T07:13:45;101501.34;;;7.28;80.27
71778;BME280;59609;52.430;4.668;2023-04-06T07:16:11;101503.69;;;7.33;80.22
71778;BME280;59609;52.430;4.668;2023-04-06T07:18:36;101491.25;;;7.29;80.37
71778;BME280;59609;52.430;4.668;2023-04-06T07:21:02;101500.56;;;7.37;80.14
71778;BME280;59609;52.430;4.668;2023-04-06T07:23:27;101486.34;;;7.43;80.00
71778;BME280;59609;52.430;4.668;2023-04-06T07:25:52;101488.69;;;7.68;79.54
71778;BME280;59609;52.430;4.668;2023-04-06T07:28:19;101491.25;;;7.60;80.55
71778;BME280;59609;52.430;4.668;2023-04-06T07:30:45;101483.47;;;7.65;81.00
71778;BME280;59609;52.430;4.668;2023-04-06T07:33:10;101483.59;;;7.64;81.70
71778;BME280;59609;52.430;4.668;2023-04-06T07:35:35;101490.09;;;7.63;82.57
71778;BME280;59609;52.430;4.668;2023-04-06T07:38:02;101478.47;;;7.70;82.49
71778;BME280;59609;52.430;4.668;2023-04-06T07:40:27;101484.63;;;7.84;82.66
71778;BME280;59609;52.430;4.668;2023-04-06T07:42:53;101483.94;;;7.91;81.95
71778;BME280;59609;52.430;4.668;2023-04-06T07:45:19;101478.53;;;8.01;81.62
71778;BME280;59609;52.430;4.668;2023-04-06T07:47:45;101476.69;;;8.11;80.42
71778;BME280;59609;52.430;4.668;2023-04-06T07:50:10;101481.31;;;8.31;80.64
71778;BME280;59609;52.430;4.668;2023-04-06T07:52:36;101473.00;;;8.42;79.73
71778;BME280;59609;52.430;4.668;2023-04-06T07:55:01;101475.38;;;8.56;80.05
71778;BME280;59609;52.430;4.668;2023-04-06T07:57:27;101475.06;;;8.50;79.63
71778;BME280;59609;52.430;4.668;2023-04-06T07:59:52;101471.25;;;8.41;79.21
71778;BME280;59609;52.430;4.668;2023-04-06T08:02:18;101482.88;;;8.54;79.16
71778;BME280;59609;52.430;4.668;2023-04-06T08:04:44;101479.41;;;8.52;77.95
71778;BME280;59609;52.430;4.668;2023-04-06T08:07:09;101486.41;;;8.66;78.47
71778;BME280;59609;52.430;4.668;2023-04-06T08:09:35;101473.69;;;8.74;78.09
71778;BME280;59609;52.430;4.668;2023-04-06T08:12:00;101478.38;;;8.84;77.97
71778;BME280;59609;52.430;4.668;2023-04-06T08:14:26;101477.19;;;8.76;78.76
71778;BME280;59609;52.430;4.668;2023-04-06T08:16:51;101468.34;;;8.63;78.66
71778;BME280;59609;52.430;4.668;2023-04-06T08:19:16;101476.63;;;8.83;77.93
71778;BME280;59609;52.430;4.668;2023-04-06T08:21:44;101469.69;;;8.88;78.07
71778;BME280;59609;52.430;4.668;2023-04-06T08:24:10;101474.00;;;8.81;79.13
71778;BME280;59609;52.430;4.668;2023-04-06T08:26:35;101475.38;;;9.06;78.97
71778;BME280;59609;52.430;4.668;2023-04-06T08:29:01;101481.00;;;8.95;80.12
71778;BME280;59609;52.430;4.668;2023-04-06T08:31:26;101479.88;;;8.97;80.27
71778;BME280;59609;52.430;4.668;2023-04-06T08:33:52;101476.41;;;9.14;80.12
71778;BME280;59609;52.430;4.668;2023-04-06T08:36:17;101471.25;;;9.30;79.03
71778;BME280;59609;52.430;4.668;2023-04-06T08:38:47;101459.50;;;9.19;78.81
71778;BME280;59609;52.430;4.668;2023-04-06T08:41:14;101460.06;;;9.42;78.79
71778;BME280;59609;52.430;4.668;2023-04-06T08:43:47;101468.19;;;9.53;80.12
71778;BME280;59609;52.430;4.668;2023-04-06T08:46:14;101466.88;;;9.28;79.67
71778;BME280;59609;52.430;4.668;2023-04-06T08:48:43;101471.66;;;9.36;80.73
71778;BME280;59609;52.430;4.668;2023-04-06T08:51:09;101474.69;;;9.42;80.91
71778;BME280;59609;52.430;4.668;2023-04-06T08:53:35;101464.13;;;9.28;81.64
71778;BME280;59609;52.430;4.668;2023-04-06T08:56:01;101473.25;;;9.28;83.11
71778;BME280;59609;52.430;4.668;2023-04-06T08:58:32;101469.91;;;9.25;82.45
71778;BME280;59609;52.430;4.668;2023-04-06T09:00:58;101471.25;;;9.30;83.24
71778;BME280;59609;52.430;4.668;2023-04-06T09:03:26;101467.03;;;9.36;82.93
71778;BME280;59609;52.430;4.668;2023-04-06T09:05:52;101468.91;;;9.26;85.01
71778;BME280;59609;52.430;4.668;2023-04-06T09:08:19;101463.69;;;9.32;85.80
71778;BME280;59609;52.430;4.668;2023-04-06T09:10:44;101465.69;;;9.21;86.73
71778;BME280;59609;52.430;4.668;2023-04-06T09:13:10;101464.84;;;9.20;87.90
71778;BME280;59609;52.430;4.668;2023-04-06T09:15:37;101471.78;;;9.15;88.83
71778;BME280;59609;52.430;4.668;2023-04-06T09:18:02;101464.84;;;9.20;89.52
71778;BME280;59609;52.430;4.668;2023-04-06T09:20:28;101467.72;;;9.00;90.32
71778;BME280;59609;52.430;4.668;2023-04-06T09:22:54;101461.94;;;9.22;90.02
71778;BME280;59609;52.430;4.668;2023-04-06T09:25:24;101458.78;;;9.17;89.77
71778;BME280;59609;52.430;4.668;2023-04-06T09:28:02;101458.91;;;9.25;90.70
71778;BME280;59609;52.430;4.668;2023-04-06T09:30:28;101462.25;;;9.38;90.47
71778;BME280;59609;52.430;4.668;2023-04-06T09:32:55;101463.69;;;9.32;90.54
71778;BME280;59609;52.430;4.668;2023-04-06T09:35:22;101460.78;;;9.34;89.74
71778;BME280;59609;52.430;4.668;2023-04-06T09:37:50;101463.69;;;9.42;90.72
71778;BME280;59609;52.430;4.668;2023-04-06T09:40:16;101458.91;;;9.44;90.55
71778;BME280;59609;52.430;4.668;2023-04-06T09:42:45;101444.44;;;9.32;91.61
71778;BME280;59609;52.430;4.668;2023-04-06T09:45:12;101448.78;;;9.54;91.56
71778;BME280;59609;52.430;4.668;2023-04-06T09:47:39;101432.97;;;9.75;92.09
71778;BME280;59609;52.430;4.668;2023-04-06T09:50:07;101451.06;;;9.88;91.68
71778;BME280;59609;52.430;4.668;2023-04-06T09:52:38;101449.06;;;9.80;90.56
71778;BME280;59609;52.430;4.668;2023-04-06T09:55:05;101443.84;;;9.87;91.52
71778;BME280;59609;52.430;4.668;2023-04-06T10:00:17;101446.16;;;9.72;91.40
71778;BME280;59609;52.430;4.668;2023-04-06T10:08:27;101442.41;;;9.44;90.49
71778;BME280;59609;52.430;4.668;2023-04-06T10:10:54;101449.94;;;9.23;90.05
71778;BME280;59609;52.430;4.668;2023-04-06T10:13:20;101458.63;;;9.38;89.65
71778;BME280;59609;52.430;4.668;2023-04-06T10:15:46;101445.03;;;9.55;89.78
71778;BME280;59609;52.430;4.668;2023-04-06T10:18:12;101441.84;;;9.60;88.00
71778;BME280;59609;52.430;4.668;2023-04-06T10:20:43;101439.81;;;9.52;89.49
71778;BME280;59609;52.430;4.668;2023-04-06T10:23:19;101445.16;;;9.44;90.10
71778;BME280;59609;52.430;4.668;2023-04-06T10:25:59;101444.28;;;9.34;90.33
71778;BME280;59609;52.430;4.668;2023-04-06T10:28:29;101440.38;;;9.17;90.02
71778;BME280;59609;52.430;4.668;2023-04-06T10:31:00;101431.28;;;9.17;92.93
71778;BME280;59609;52.430;4.668;2023-04-06T10:33:26;101434.31;;;9.14;94.65
71778;BME280;59609;52.430;4.668;2023-04-06T10:35:52;101431.00;;;9.20;96.65
71778;BME280;59609;52.430;4.668;2023-04-06T10:38:19;101440.25;;;9.09;96.84
71778;BME280;59609;52.430;4.668;2023-04-06T10:40:47;101420.59;;;9.23;98.96
71778;BME280;59609;52.430;4.668;2023-04-06T10:43:21;101428.53;;;9.17;100.00
71778;BME280;59609;52.430;4.668;2023-04-06T10:45:55;101428.09;;;9.12;99.01
71778;BME280;59609;52.430;4.668;2023-04-06T10:48:21;101423.91;;;9.27;100.00
71778;BME280;59609;52.430;4.668;2023-04-06T10:50:49;101424.59;;;9.48;98.79
71778;BME280;59609;52.430;4.668;2023-04-06T10:53:23;101415.38;;;9.40;99.88
71778;BME280;59609;52.430;4.668;2023-04-06T10:55:54;101405.94;;;9.52;100.00
71778;BME280;59609;52.430;4.668;2023-04-06T10:58:24;101406.22;;;9.58;100.00
71778;BME280;59609;52.430;4.668;2023-04-06T11:00:50;101407.66;;;9.24;100.00
71778;BME280;59609;52.430;4.668;2023-04-06T11:03:17;101394.97;;;9.04;100.00
71778;BME280;59609;52.430;4.668;2023-04-06T11:05:46;101410.44;;;9.14;100.00
71778;BME280;59609;52.430;4.668;2023-04-06T11:08:22;101393.06;;;9.04;100.00
71778;BME280;59609;52.430;4.668;2023-04-06T11:10:48;101396.97;;;9.21;100.00
71778;BME280;59609;52.430;4.668;2023-04-06T11:13:14;101401.75;;;9.00;100.00
71778;BME280;59609;52.430;4.668;2023-04-06T11:15:40;101387.72;;;9.22;100.00
71778;BME280;59609;52.430;4.668;2023-04-06T11:18:05;101392.78;;;9.07;100.00
71778;BME280;59609;52.430;4.668;2023-04-06T11:20:30;101389.00;;;8.99;100.00
71778;BME280;59609;52.430;4.668;2023-04-06T11:22:56;101384.81;;;8.95;100.00
71778;BME280;59609;52.430;4.668;2023-04-06T11:25:23;101391.19;;;8.95;100.00
71778;BME280;59609;52.430;4.668;2023-04-06T11:27:50;101383.50;;;8.79;100.00
71778;BME280;59609;52.430;4.668;2023-04-06T11:30:16;101388.44;;;8.86;100.00
71778;BME280;59609;52.430;4.668;2023-04-06T11:32:45;101390.59;;;9.01;100.00
71778;BME280;59609;52.430;4.668;2023-04-06T11:35:21;101370.94;;;8.96;100.00
71778;BME280;59609;52.430;4.668;2023-04-06T11:37:49;101384.09;;;8.73;100.00
71778;BME280;59609;52.430;4.668;2023-04-06T11:40:15;101372.22;;;8.92;100.00
71778;BME280;59609;52.430;4.668;2023-04-06T11:42:40;101371.06;;;8.75;100.00
71778;BME280;59609;52.430;4.668;2023-04-06T11:45:07;101390.75;;;8.81;100.00
71778;BME280;59609;52.430;4.668;2023-04-06T11:47:34;101357.59;;;8.72;100.00
71778;BME280;59609;52.430;4.668;2023-04-06T11:50:13;101365.00;;;8.82;100.00
71778;BME280;59609;52.430;4.668;2023-04-06T11:52:42;101357.50;;;8.84;100.00
71778;BME280;59609;52.430;4.668;2023-04-06T11:57:38;101348.78;;;8.88;100.00
71778;BME280;59609;52.430;4.668;2023-04-06T12:00:04;101359.66;;;8.90;100.00
71778;BME280;59609;52.430;4.668;2023-04-06T12:02:29;101359.66;;;8.90;100.00
71778;BME280;59609;52.430;4.668;2023-04-06T12:04:57;101350.25;;;8.83;100.00
71778;BME280;59609;52.430;4.668;2023-04-06T12:07:22;101354.28;;;8.69;100.00
71778;BME280;59609;52.430;4.668;2023-04-06T12:09:47;101339.66;;;8.68;100.00
71778;BME280;59609;52.430;4.668;2023-04-06T12:12:13;101347.22;;;8.86;100.00
71778;BME280;59609;52.430;4.668;2023-04-06T12:14:38;101347.09;;;8.87;100.00
71778;BME280;59609;52.430;4.668;2023-04-06T12:17:04;101347.78;;;8.60;100.00
71778;BME280;59609;52.430;4.668;2023-04-06T12:19:29;101343.47;;;8.77;100.00
71778;BME280;59609;52.430;4.668;2023-04-06T12:21:55;101333.59;;;8.74;100.00
71778;BME280;59609;52.430;4.668;2023-04-06T12:24:21;101333.19;;;8.69;100.00
71778;BME280;59609;52.430;4.668;2023-04-06T12:26:47;101343.72;;;8.74;100.00
71778;BME280;59609;52.430;4.668;2023-04-06T12:29:12;101341.13;;;8.82;100.00
71778;BME280;59609;52.430;4.668;2023-04-06T12:31:39;101343.28;;;8.59;100.00
71778;BME280;59609;52.430;4.668;2023-04-06T12:34:09;101339.38;;;8.52;100.00
71778;BME280;59609;52.430;4.668;2023-04-06T12:36:34;101340.06;;;8.54;100.00
71778;BME280;59609;52.430;4.668;2023-04-06T12:39:00;101348.22;;;8.75;100.00
71778;BME280;59609;52.430;4.668;2023-04-06T12:41:27;101338.38;;;8.72;100.00
71778;BME280;59609;52.430;4.668;2023-04-06T12:43:52;101338.38;;;8.72;100.00
71778;BME280;59609;52.430;4.668;2023-04-06T12:46:17;101339.38;;;8.71;100.00
71778;BME280;59609;52.430;4.668;2023-04-06T12:48:43;101330.72;;;8.66;100.00
71778;BME280;59609;52.430;4.668;2023-04-06T12:51:08;101325.06;;;8.58;100.00
71778;BME280;59609;52.430;4.668;2023-04-06T12:53:34;101323.19;;;8.68;100.00
71778;BME280;59609;52.430;4.668;2023-04-06T12:56:00;101329.84;;;8.66;100.00
71778;BME280;59609;52.430;4.668;2023-04-06T12:58:26;101321.31;;;8.59;100.00
71778;BME280;59609;52.430;4.668;2023-04-06T13:00:52;101320.84;;;8.54;100.00
71778;BME280;59609;52.430;4.668;2023-04-06T13:03:20;101323.63;;;8.64;100.00